createdAt,value
2022-12-03T00:00:14.249Z,43.40
2022-12-03T00:02:42.235Z,41.87
2022-12-03T00:05:11.489Z,31.20
2022-12-03T00:07:39.285Z,42.47
2022-12-03T00:10:08.837Z,36.23
2022-12-03T00:12:37.938Z,41.97
2022-12-03T00:15:07.065Z,45.67
2022-12-03T00:17:34.864Z,36.40
2022-12-03T00:20:02.770Z,39.30
2022-12-03T00:22:30.601Z,31.80
2022-12-03T00:24:58.375Z,40.37
2022-12-03T00:27:26.145Z,35.40
2022-12-03T00:29:55.287Z,36.10
2022-12-03T00:32:23.086Z,41.53
2022-12-03T00:34:51.090Z,39.97
2022-12-03T00:37:19.121Z,35.10
2022-12-03T00:39:46.944Z,45.70
2022-12-03T00:42:14.771Z,42.63
2022-12-03T00:44:42.568Z,41.93
2022-12-03T00:47:12.686Z,41.50
2022-12-03T00:49:41.234Z,40.93
2022-12-03T00:52:09.019Z,47.60
2022-12-03T00:54:36.843Z,42.70
2022-12-03T00:57:04.776Z,37.87
2022-12-03T00:59:32.577Z,41.07
2022-12-03T01:02:00.470Z,34.33
2022-12-03T01:04:29.699Z,44.40
2022-12-03T01:06:57.517Z,48.60
2022-12-03T01:09:25.356Z,44.03
2022-12-03T01:11:53.246Z,51.57
2022-12-03T01:14:21.801Z,45.23
2022-12-03T01:16:50.003Z,45.53
2022-12-03T01:19:19.366Z,48.47
2022-12-03T01:21:50.094Z,44.67
2022-12-03T01:24:19.017Z,41.07
2022-12-03T01:26:46.824Z,39.00
2022-12-03T01:29:15.561Z,40.83
2022-12-03T01:32:01.379Z,41.57
2022-12-03T01:34:29.285Z,38.57
2022-12-03T01:36:58.610Z,45.30
2022-12-03T01:39:26.476Z,44.53
2022-12-03T01:41:55.080Z,43.27
2022-12-03T01:44:25.472Z,51.20
2022-12-03T01:46:55.255Z,50.20
2022-12-03T01:49:26.112Z,48.27
2022-12-03T01:51:56.037Z,44.37
2022-12-03T01:54:29.075Z,53.13
2022-12-03T01:56:57.138Z,45.53
2022-12-03T01:59:32.966Z,52.57
2022-12-03T02:02:03.413Z,47.83
2022-12-03T02:04:31.312Z,59.03
2022-12-03T02:07:17.656Z,48.40
2022-12-03T02:09:46.806Z,49.50
2022-12-03T02:12:16.078Z,57.80
2022-12-03T02:14:44.231Z,42.57
2022-12-03T02:17:12.737Z,55.23
2022-12-03T02:19:40.762Z,56.60
2022-12-03T02:22:18.104Z,50.73
2022-12-03T02:24:53.411Z,44.30
2022-12-03T02:27:22.713Z,68.60
2022-12-03T02:29:50.591Z,55.57
2022-12-03T02:32:18.604Z,50.40
2022-12-03T02:34:47.890Z,48.00
2022-12-03T02:37:20.981Z,50.80
2022-12-03T02:39:53.009Z,58.53
2022-12-03T02:42:38.389Z,52.70
2022-12-03T02:45:10.096Z,54.50
2022-12-03T02:47:42.298Z,52.07
2022-12-03T02:50:12.230Z,53.50
2022-12-03T02:52:41.894Z,51.23
2022-12-03T02:55:10.700Z,46.50
2022-12-03T02:57:40.375Z,52.97
2022-12-03T03:00:10.414Z,49.80
2022-12-03T03:02:40.049Z,45.70
2022-12-03T03:05:10.579Z,42.57
2022-12-03T03:07:39.858Z,50.77
2022-12-03T03:10:12.418Z,47.17
2022-12-03T03:12:41.745Z,51.20
2022-12-03T03:15:12.011Z,47.83
2022-12-03T03:17:40.419Z,52.97
2022-12-03T03:20:10.072Z,50.40
2022-12-03T03:22:40.089Z,54.30
2022-12-03T03:25:09.889Z,41.37
2022-12-03T03:27:38.283Z,51.33
2022-12-03T03:30:09.858Z,45.97
2022-12-03T03:32:39.361Z,40.47
2022-12-03T03:35:11.759Z,45.90
2022-12-03T03:37:40.093Z,50.60
2022-12-03T03:40:09.204Z,49.03
2022-12-03T03:42:38.009Z,47.53
2022-12-03T03:45:09.667Z,54.00
2022-12-03T03:47:38.015Z,47.83
2022-12-03T03:50:07.058Z,45.80
2022-12-03T03:52:35.285Z,54.63
2022-12-03T03:55:03.225Z,56.73
2022-12-03T03:57:31.057Z,52.13
2022-12-03T03:59:59.347Z,57.53
2022-12-03T04:02:28.730Z,47.00
2022-12-03T04:04:56.574Z,40.43
2022-12-03T04:07:24.483Z,46.90
2022-12-03T04:09:52.327Z,46.40
2022-12-03T04:12:37.787Z,43.27
2022-12-03T04:15:06.625Z,39.07
2022-12-03T04:17:35.746Z,37.43
2022-12-03T04:20:03.658Z,33.80
2022-12-03T04:22:39.699Z,35.73
2022-12-03T04:25:26.498Z,35.00
2022-12-03T04:28:12.422Z,32.77
2022-12-03T04:30:40.537Z,32.17
2022-12-03T04:33:27.558Z,36.43
2022-12-03T04:35:55.400Z,37.80
2022-12-03T04:38:23.280Z,35.53
2022-12-03T04:41:04.098Z,39.20
2022-12-03T04:43:33.622Z,33.20
2022-12-03T04:46:02.460Z,27.57
2022-12-03T04:48:31.691Z,25.80
2022-12-03T04:50:59.477Z,37.70
2022-12-03T04:53:27.263Z,28.23
2022-12-03T04:55:55.042Z,27.40
2022-12-03T04:58:22.817Z,30.20
2022-12-03T05:00:50.616Z,25.27
2022-12-03T05:03:18.451Z,28.77
2022-12-03T05:05:47.571Z,24.37
2022-12-03T05:08:15.432Z,30.40
2022-12-03T05:10:43.284Z,30.63
2022-12-03T05:13:11.055Z,27.30
2022-12-03T05:15:38.887Z,26.13
2022-12-03T05:18:06.690Z,28.47
2022-12-03T05:20:49.655Z,29.17
2022-12-03T05:23:22.348Z,29.93
2022-12-03T05:25:50.310Z,24.90
2022-12-03T05:28:18.208Z,29.90
2022-12-03T05:30:46.045Z,25.17
2022-12-03T05:33:13.897Z,28.50
2022-12-03T05:35:41.696Z,26.73
2022-12-03T05:38:09.468Z,27.37
2022-12-03T05:40:38.835Z,31.67
2022-12-03T05:43:05.661Z,32.83
2022-12-03T05:45:35.238Z,29.70
2022-12-03T05:48:03.796Z,28.03
2022-12-03T05:50:33.960Z,32.17
2022-12-03T05:53:01.931Z,27.73
2022-12-03T05:55:30.072Z,27.70
2022-12-03T05:57:59.232Z,32.03
2022-12-03T06:00:29.248Z,30.00
2022-12-03T06:02:58.080Z,29.87
2022-12-03T06:05:26.344Z,30.20
2022-12-03T06:07:54.445Z,32.50
2022-12-03T06:10:24.635Z,28.00
2022-12-03T06:12:52.743Z,26.53
2022-12-03T06:15:42.096Z,29.57
2022-12-03T06:18:11.671Z,34.90
2022-12-03T06:20:39.503Z,26.73
2022-12-03T06:23:07.283Z,24.90
2022-12-03T06:25:35.084Z,31.90
2022-12-03T06:28:02.912Z,29.60
2022-12-03T06:30:30.699Z,30.53
2022-12-03T06:32:59.880Z,35.80
2022-12-03T06:35:27.656Z,30.47
2022-12-03T06:37:55.443Z,29.57
2022-12-03T06:40:24.365Z,31.33
2022-12-03T06:42:52.365Z,32.77
2022-12-03T06:45:20.148Z,29.00
2022-12-03T06:47:48.055Z,29.70
2022-12-03T06:50:17.342Z,31.07
2022-12-03T06:52:45.164Z,30.27
2022-12-03T06:55:12.953Z,32.00
2022-12-03T06:57:40.725Z,37.30
2022-12-03T07:00:09.973Z,30.73
2022-12-03T07:02:37.987Z,32.60
2022-12-03T07:05:06.343Z,35.30
2022-12-03T07:07:35.536Z,34.63
2022-12-03T07:10:04.388Z,37.70
2022-12-03T07:12:32.741Z,33.53
2022-12-03T07:15:00.522Z,34.73
2022-12-03T07:17:28.558Z,36.00
2022-12-03T07:19:56.353Z,38.17
2022-12-03T07:22:24.131Z,32.63
2022-12-03T07:24:53.485Z,34.00
2022-12-03T07:27:21.424Z,30.50
2022-12-03T07:29:49.195Z,33.50
2022-12-03T07:32:17.014Z,31.43
2022-12-03T07:34:44.820Z,37.03
2022-12-03T07:37:12.689Z,28.87
2022-12-03T07:39:40.513Z,31.93
2022-12-03T07:42:10.248Z,41.50
2022-12-03T07:44:38.051Z,40.20
2022-12-03T07:47:06.028Z,35.73
2022-12-03T07:49:33.867Z,35.43
2022-12-03T07:52:01.656Z,36.63
2022-12-03T07:54:29.473Z,36.63
2022-12-03T07:57:01.414Z,41.93
2022-12-03T07:59:31.262Z,38.70
2022-12-03T08:01:59.097Z,38.83
2022-12-03T08:04:26.886Z,44.50
2022-12-03T08:06:54.936Z,38.13
2022-12-03T08:09:22.859Z,41.67
2022-12-03T08:11:51.098Z,40.37
2022-12-03T08:14:20.670Z,43.90
2022-12-03T08:16:49.946Z,44.17
2022-12-03T08:19:19.159Z,45.47
2022-12-03T08:21:47.144Z,46.53
2022-12-03T08:24:17.402Z,41.00
2022-12-03T08:26:46.814Z,40.53
2022-12-03T08:29:16.680Z,49.10
2022-12-03T08:31:51.923Z,50.20
2022-12-03T08:34:22.079Z,44.10
2022-12-03T08:36:52.453Z,46.43
2022-12-03T08:39:30.136Z,43.10
2022-12-03T08:42:19.793Z,45.00
2022-12-03T08:44:48.179Z,57.17
2022-12-03T08:47:21.591Z,60.97
2022-12-03T08:49:54.801Z,53.13
2022-12-03T08:52:27.590Z,52.40
2022-12-03T08:54:57.346Z,42.90
2022-12-03T08:57:28.987Z,46.83
2022-12-03T09:00:01.036Z,44.13
2022-12-03T09:02:34.007Z,46.87
2022-12-03T09:05:14.517Z,46.73
2022-12-03T09:07:42.352Z,47.43
2022-12-03T09:10:10.915Z,55.43
2022-12-03T09:12:38.700Z,45.03
2022-12-03T09:15:07.446Z,41.40
2022-12-03T09:17:36.716Z,47.67
2022-12-03T09:20:04.966Z,52.30
2022-12-03T09:22:32.897Z,50.20
2022-12-03T09:25:00.706Z,44.30
2022-12-03T09:27:28.472Z,44.67
2022-12-03T09:29:56.289Z,46.50
2022-12-03T09:32:24.265Z,53.40
2022-12-03T09:34:54.169Z,51.47
2022-12-03T09:37:22.305Z,47.73
2022-12-03T09:39:50.412Z,49.03
2022-12-03T09:42:18.566Z,46.70
2022-12-03T09:44:46.420Z,50.43
2022-12-03T09:47:14.912Z,51.27
2022-12-03T09:49:43.225Z,49.80
2022-12-03T09:52:20.749Z,53.17
2022-12-03T09:54:48.543Z,52.23
2022-12-03T09:57:17.756Z,49.03
2022-12-03T09:59:45.587Z,48.63
2022-12-03T10:02:20.931Z,45.77
2022-12-03T10:04:49.208Z,52.07
2022-12-03T10:07:18.535Z,49.23
2022-12-03T10:09:46.509Z,48.63
2022-12-03T10:12:16.157Z,51.43
2022-12-03T10:14:44.516Z,46.13
2022-12-03T10:17:13.184Z,48.27
2022-12-03T10:19:42.635Z,50.87
2022-12-03T10:22:10.444Z,56.93
2022-12-03T10:24:39.978Z,46.60
2022-12-03T10:27:22.689Z,55.80
2022-12-03T10:29:56.689Z,45.10
2022-12-03T10:32:27.212Z,54.03
2022-12-03T10:35:10.415Z,50.30
2022-12-03T10:37:38.428Z,48.90
2022-12-03T10:40:11.862Z,48.80
2022-12-03T10:42:41.226Z,51.73
2022-12-03T10:45:20.650Z,53.57
2022-12-03T10:48:07.385Z,61.00
2022-12-03T10:50:36.389Z,60.67
2022-12-03T10:53:04.394Z,61.73
2022-12-03T10:55:39.669Z,54.30
2022-12-03T10:58:09.862Z,56.33
2022-12-03T11:00:37.781Z,59.03
2022-12-03T11:03:10.911Z,63.97
2022-12-03T11:05:38.690Z,57.93
2022-12-03T11:08:06.713Z,59.90
2022-12-03T11:10:36.448Z,51.83
2022-12-03T11:13:29.836Z,58.43
2022-12-03T11:15:58.226Z,57.23
2022-12-03T11:19:00.221Z,59.10
2022-12-03T11:21:28.081Z,58.93
2022-12-03T11:24:27.099Z,60.80
2022-12-03T11:27:23.600Z,54.00
2022-12-03T11:29:54.356Z,63.83
2022-12-03T11:33:06.111Z,66.60
2022-12-03T11:36:12.542Z,61.00
2022-12-03T11:38:53.496Z,57.30
2022-12-03T11:41:25.896Z,57.50
2022-12-03T11:44:17.539Z,62.27
2022-12-03T11:46:47.093Z,51.70
2022-12-03T11:49:33.842Z,66.23
2022-12-03T11:52:05.349Z,58.93
2022-12-03T11:54:36.119Z,57.97
2022-12-03T11:57:04.180Z,63.67
2022-12-03T11:59:33.355Z,56.60
2022-12-03T12:02:01.146Z,64.27
2022-12-03T12:04:35.308Z,60.00
2022-12-03T12:07:03.346Z,62.50
2022-12-03T12:09:52.328Z,58.67
2022-12-03T12:12:27.862Z,61.20
2022-12-03T12:14:57.282Z,57.07
2022-12-03T12:17:35.696Z,61.93
2022-12-03T12:20:13.943Z,60.73
2022-12-03T12:22:41.830Z,59.33
2022-12-03T12:25:40.626Z,56.53
2022-12-03T12:28:08.963Z,61.37
2022-12-03T12:30:38.117Z,54.03
2022-12-03T12:33:16.876Z,58.70
2022-12-03T12:35:44.688Z,67.80
2022-12-03T12:38:18.190Z,61.60
2022-12-03T12:40:49.110Z,64.20
2022-12-03T12:43:24.708Z,65.60
2022-12-03T12:45:56.288Z,63.17
2022-12-03T12:48:26.894Z,54.00
2022-12-03T12:51:01.607Z,58.97
2022-12-03T12:53:31.958Z,66.63
2022-12-03T12:56:01.839Z,62.13
2022-12-03T12:58:33.062Z,69.60
2022-12-03T13:01:07.288Z,68.20
2022-12-03T13:03:38.182Z,60.37
2022-12-03T13:06:06.581Z,62.27
2022-12-03T13:08:40.465Z,60.50
2022-12-03T13:11:31.935Z,64.80
2022-12-03T13:13:59.759Z,63.70
2022-12-03T13:16:33.664Z,60.00
2022-12-03T13:19:02.907Z,65.33
2022-12-03T13:21:38.708Z,60.80
2022-12-03T13:24:33.534Z,68.00
2022-12-03T13:27:04.027Z,59.43
2022-12-03T13:29:33.362Z,57.83
2022-12-03T13:32:10.425Z,64.57
2022-12-03T13:34:38.372Z,63.33
2022-12-03T13:37:14.029Z,66.17
2022-12-03T13:39:46.716Z,60.63
2022-12-03T13:42:38.891Z,56.77
2022-12-03T13:45:35.214Z,59.03
2022-12-03T13:48:14.648Z,63.87
2022-12-03T13:50:45.915Z,59.57
2022-12-03T13:53:21.262Z,56.33
2022-12-03T13:55:51.404Z,61.10
2022-12-03T13:58:19.253Z,59.30
2022-12-03T14:00:47.172Z,60.07
2022-12-03T14:03:17.490Z,59.13
2022-12-03T14:05:45.339Z,61.83
2022-12-03T14:08:13.217Z,59.47
2022-12-03T14:10:41.274Z,65.57
2022-12-03T14:13:08.110Z,53.67
2022-12-03T14:15:35.892Z,52.00
2022-12-03T14:18:03.689Z,57.37
2022-12-03T14:20:34.370Z,60.63
2022-12-03T14:23:02.169Z,63.63
2022-12-03T14:25:30.001Z,58.00
2022-12-03T14:27:57.786Z,58.10
2022-12-03T14:30:25.546Z,57.33
2022-12-03T14:32:53.388Z,58.10
2022-12-03T14:35:21.189Z,60.13
2022-12-03T14:37:50.334Z,68.60
2022-12-03T14:40:21.594Z,53.60
2022-12-03T14:42:49.896Z,63.90
2022-12-03T14:45:17.780Z,59.47
2022-12-03T14:47:45.577Z,62.37
2022-12-03T14:50:14.303Z,63.70
2022-12-03T14:52:43.298Z,57.30
2022-12-03T14:55:12.573Z,59.37
2022-12-03T14:57:40.397Z,58.73
2022-12-03T15:00:09.335Z,61.67
2022-12-03T15:02:37.262Z,66.10
2022-12-03T15:05:05.557Z,72.30
2022-12-03T15:07:33.389Z,65.93
2022-12-03T15:10:01.349Z,63.77
2022-12-03T15:12:31.469Z,53.73
2022-12-03T15:14:59.305Z,58.80
2022-12-03T15:17:31.775Z,60.80
2022-12-03T15:19:59.923Z,58.80
2022-12-03T15:22:27.701Z,60.83
2022-12-03T15:24:55.496Z,59.23
2022-12-03T15:27:23.361Z,55.57
2022-12-03T15:29:52.816Z,57.23
2022-12-03T15:32:20.934Z,60.63
2022-12-03T15:34:50.902Z,55.53
2022-12-03T15:37:18.927Z,55.10
2022-12-03T15:39:48.870Z,55.73
2022-12-03T15:42:16.940Z,59.47
2022-12-03T15:44:44.762Z,56.33
2022-12-03T15:47:13.952Z,63.80
2022-12-03T15:49:41.831Z,57.47
2022-12-03T15:52:09.680Z,55.13
2022-12-03T15:54:37.629Z,57.27
2022-12-03T15:57:05.505Z,57.67
2022-12-03T15:59:33.288Z,64.57
2022-12-03T16:02:01.143Z,63.70
2022-12-03T16:04:30.382Z,54.00
2022-12-03T16:06:58.382Z,67.15
2022-12-03T16:09:27.657Z,54.90
2022-12-03T16:11:55.825Z,53.80
2022-12-03T16:14:23.626Z,57.43
2022-12-03T16:16:51.945Z,62.73
2022-12-03T16:19:19.770Z,64.73
2022-12-03T16:21:48.929Z,58.20
2022-12-03T16:24:16.786Z,52.30
2022-12-03T16:26:44.632Z,62.07
2022-12-03T16:29:12.489Z,61.63
2022-12-03T16:31:40.324Z,56.53
2022-12-03T16:34:08.134Z,62.10
2022-12-03T16:36:35.936Z,50.13
2022-12-03T16:39:05.320Z,56.47
2022-12-03T16:41:33.114Z,61.73
2022-12-03T16:44:02.471Z,60.57
2022-12-03T16:46:30.579Z,60.87
2022-12-03T16:48:59.545Z,61.17
2022-12-03T16:51:30.132Z,65.10
2022-12-03T16:53:57.992Z,67.13
2022-12-03T16:56:27.159Z,65.80
2022-12-03T16:59:04.692Z,62.90
2022-12-03T17:01:32.656Z,70.03
2022-12-03T17:04:00.559Z,57.77
2022-12-03T17:06:28.357Z,62.60
2022-12-03T17:08:56.154Z,65.90
2022-12-03T17:11:23.922Z,60.40
2022-12-03T17:13:53.151Z,60.40
2022-12-03T17:16:21.149Z,65.10
2022-12-03T17:18:48.985Z,67.10
2022-12-03T17:21:16.772Z,62.40
2022-12-03T17:23:44.875Z,55.53
2022-12-03T17:26:12.684Z,66.93
2022-12-03T17:28:40.530Z,64.33
2022-12-03T17:31:09.817Z,64.13
2022-12-03T17:33:37.666Z,54.93
2022-12-03T17:36:06.589Z,66.70
2022-12-03T17:38:39.074Z,69.93
2022-12-03T17:41:08.059Z,57.90
2022-12-03T17:43:35.861Z,59.53
2022-12-03T17:46:04.983Z,69.17
2022-12-03T17:48:34.455Z,65.40
2022-12-03T17:51:02.511Z,64.30
2022-12-03T17:53:30.307Z,72.20
2022-12-03T17:55:58.090Z,75.33
2022-12-03T17:58:26.608Z,70.80
2022-12-03T18:00:58.781Z,65.70
2022-12-03T18:03:30.199Z,67.43
2022-12-03T18:05:59.412Z,56.60
2022-12-03T18:08:27.199Z,66.73
2022-12-03T18:10:55.144Z,72.17
2022-12-03T18:13:23.153Z,68.60
2022-12-03T18:15:51.011Z,66.23
2022-12-03T18:18:18.822Z,69.30
2022-12-03T18:20:46.623Z,69.40
2022-12-03T18:23:15.860Z,70.70
2022-12-03T18:25:43.855Z,74.73
2022-12-03T18:28:11.648Z,67.40
2022-12-03T18:30:39.471Z,68.53
2022-12-03T18:33:07.248Z,72.67
2022-12-03T18:35:35.150Z,61.27
2022-12-03T18:38:03.057Z,64.47
2022-12-03T18:40:32.226Z,68.83
2022-12-03T18:43:00.719Z,75.27
2022-12-03T18:45:28.535Z,60.90
2022-12-03T18:47:56.465Z,66.23
2022-12-03T18:50:24.403Z,59.83
2022-12-03T18:52:52.168Z,54.30
2022-12-03T18:55:22.617Z,68.53
2022-12-03T18:57:51.744Z,62.33
2022-12-03T19:00:20.101Z,69.93
2022-12-03T19:03:02.910Z,60.33
2022-12-03T19:05:32.393Z,59.77
2022-12-03T19:08:00.639Z,65.70
2022-12-03T19:10:28.723Z,64.57
2022-12-03T19:12:58.023Z,61.53
2022-12-03T19:15:25.811Z,56.03
2022-12-03T19:17:53.585Z,51.93
2022-12-03T19:20:21.404Z,58.37
2022-12-03T19:22:49.302Z,59.27
2022-12-03T19:25:17.244Z,51.27
2022-12-03T19:27:45.071Z,56.03
2022-12-03T19:30:14.929Z,58.43
2022-12-03T19:32:42.747Z,56.67
2022-12-03T19:35:11.270Z,57.07
2022-12-03T19:37:39.319Z,53.73
2022-12-03T19:40:10.120Z,54.40
2022-12-03T19:42:38.035Z,51.27
2022-12-03T19:45:06.968Z,51.10
2022-12-03T19:47:36.390Z,51.50
2022-12-03T19:50:04.540Z,50.37
2022-12-03T19:52:32.344Z,58.27
2022-12-03T19:55:00.997Z,51.07
2022-12-03T19:57:29.213Z,52.23
2022-12-03T19:59:57.461Z,54.03
2022-12-03T20:02:25.560Z,58.70
2022-12-03T20:04:54.797Z,51.40
2022-12-03T20:07:22.592Z,52.53
2022-12-03T20:09:51.341Z,50.90
2022-12-03T20:12:19.204Z,52.33
2022-12-03T20:14:47.022Z,57.53
2022-12-03T20:17:14.819Z,57.03
2022-12-03T20:19:42.661Z,50.37
2022-12-03T20:22:11.813Z,59.47
2022-12-03T20:24:39.722Z,63.17
2022-12-03T20:27:07.507Z,54.60
2022-12-03T20:29:35.299Z,59.40
2022-12-03T20:32:03.871Z,60.60
2022-12-03T20:34:31.825Z,55.17
2022-12-03T20:36:59.615Z,53.43
2022-12-03T20:39:28.963Z,52.33
2022-12-03T20:41:56.736Z,53.17
2022-12-03T20:44:24.544Z,53.40
2022-12-03T20:46:52.351Z,47.50
2022-12-03T20:49:20.157Z,51.23
2022-12-03T20:51:50.065Z,55.27
2022-12-03T20:54:17.906Z,51.87
2022-12-03T20:56:47.077Z,48.40
2022-12-03T20:59:16.707Z,57.53
2022-12-03T21:01:45.696Z,48.70
2022-12-03T21:04:14.638Z,53.27
2022-12-03T21:06:42.762Z,48.00
2022-12-03T21:09:11.781Z,45.53
2022-12-03T21:11:42.224Z,50.70
2022-12-03T21:14:12.449Z,45.23
2022-12-03T21:19:30.135Z,51.73
2022-12-03T21:21:57.947Z,47.73
2022-12-03T21:24:25.764Z,48.60
2022-12-03T21:26:53.574Z,64.27
2022-12-03T21:29:23.016Z,53.23
2022-12-03T21:31:51.157Z,52.00
2022-12-03T21:34:19.063Z,49.73
2022-12-03T21:36:46.976Z,51.87
2022-12-03T21:39:15.130Z,44.83
2022-12-03T21:42:33.861Z,55.63
2022-12-03T21:44:32.244Z,48.37
2022-12-03T21:47:10.773Z,52.10
2022-12-03T21:49:42.592Z,45.03
2022-12-03T21:52:10.902Z,46.17
2022-12-03T21:54:38.757Z,45.83
2022-12-03T21:57:06.777Z,50.40
2022-12-03T21:59:36.281Z,39.37
2022-12-03T22:02:04.158Z,57.70
2022-12-03T22:04:32.112Z,45.50
2022-12-03T22:07:00.143Z,48.07
2022-12-03T22:09:28.292Z,43.00
2022-12-03T22:11:57.545Z,49.93
2022-12-03T22:14:25.561Z,50.77
2022-12-03T22:16:54.965Z,47.87
2022-12-03T22:19:24.066Z,42.87
2022-12-03T22:21:51.858Z,58.63
2022-12-03T22:24:20.182Z,54.83
2022-12-03T22:26:48.426Z,58.53
2022-12-03T22:29:16.231Z,53.63
2022-12-03T22:31:44.059Z,59.90
2022-12-03T22:34:13.702Z,60.10
2022-12-03T22:36:41.790Z,73.87
2022-12-03T22:39:09.844Z,58.73
2022-12-03T22:41:37.854Z,54.50
2022-12-03T22:44:05.976Z,57.93
2022-12-03T22:46:34.096Z,61.30
2022-12-03T22:49:07.050Z,54.33
2022-12-03T22:51:37.070Z,52.90
2022-12-03T22:54:05.641Z,61.63
2022-12-03T22:56:34.063Z,68.27
2022-12-03T22:59:01.913Z,60.07
2022-12-03T23:01:32.314Z,67.80
2022-12-03T23:04:00.484Z,56.30
2022-12-03T23:06:29.449Z,64.37
2022-12-03T23:08:59.982Z,69.50
2022-12-03T23:11:30.890Z,61.27
2022-12-03T23:13:59.610Z,57.87
2022-12-03T23:16:30.498Z,57.20
2022-12-03T23:18:59.388Z,63.90
2022-12-03T23:21:30.408Z,59.90
2022-12-03T23:24:00.343Z,64.63
2022-12-03T23:26:29.074Z,65.50
2022-12-03T23:28:57.446Z,62.77
2022-12-03T23:31:27.957Z,62.53
2022-12-03T23:33:56.882Z,66.00
2022-12-03T23:36:26.527Z,60.77
2022-12-03T23:38:54.916Z,57.30
2022-12-03T23:41:25.026Z,69.17
2022-12-03T23:43:53.101Z,69.03
2022-12-03T23:46:23.046Z,62.50
2022-12-03T23:48:51.947Z,59.47
2022-12-03T23:51:21.974Z,66.43
2022-12-03T23:53:49.886Z,58.47
2022-12-03T23:56:19.882Z,62.20
2022-12-03T23:58:49.402Z,66.43
